createdAt,value
2019-02-25T00:00:17.754Z,15.67
2019-02-25T00:02:46.203Z,14.97
2019-02-25T00:05:14.740Z,16.10
2019-02-25T00:07:43.283Z,15.60
2019-02-25T00:10:12.128Z,16.50
2019-02-25T00:12:40.589Z,16.87
2019-02-25T00:15:10.418Z,15.40
2019-02-25T00:17:40.453Z,14.47
2019-02-25T00:20:12.565Z,15.37
2019-02-25T00:22:41.070Z,14.63
2019-02-25T00:25:11.466Z,14.87
2019-02-25T00:27:39.932Z,18.37
2019-02-25T00:30:13.333Z,15.40
2019-02-25T00:32:41.800Z,16.23
2019-02-25T00:35:10.258Z,16.33
2019-02-25T00:37:38.764Z,14.60
2019-02-25T00:40:09.466Z,14.00
2019-02-25T00:42:38.080Z,17.00
2019-02-25T00:45:09.310Z,16.93
2019-02-25T00:47:37.772Z,16.67
2019-02-25T00:50:09.434Z,16.50
2019-02-25T00:52:37.944Z,15.40
2019-02-25T00:55:07.665Z,15.33
2019-02-25T00:57:36.118Z,15.77
2019-02-25T01:00:07.801Z,15.13
2019-02-25T01:02:36.274Z,16.60
2019-02-25T01:05:05.772Z,14.33
2019-02-25T01:07:34.282Z,15.30
2019-02-25T01:10:02.801Z,14.93
2019-02-25T01:12:31.379Z,16.43
2019-02-25T01:14:59.878Z,16.07
2019-02-25T01:17:28.343Z,17.47
2019-02-25T01:19:56.837Z,14.60
2019-02-25T01:22:25.320Z,16.67
2019-02-25T01:24:53.957Z,16.13
2019-02-25T01:27:22.420Z,15.27
2019-02-25T01:29:50.926Z,16.70
2019-02-25T01:32:19.391Z,15.93
2019-02-25T01:34:47.858Z,21.70
2019-02-25T01:37:16.343Z,21.83
2019-02-25T01:39:44.807Z,18.83
2019-02-25T01:42:13.276Z,15.57
2019-02-25T01:44:41.786Z,14.90
2019-02-25T01:47:10.249Z,16.33
2019-02-25T01:49:38.706Z,16.50
2019-02-25T01:52:07.218Z,15.40
2019-02-25T01:54:35.655Z,16.50
2019-02-25T01:57:04.124Z,16.27
2019-02-25T01:59:32.616Z,14.77
2019-02-25T02:02:01.081Z,14.80
2019-02-25T02:04:29.553Z,15.47
2019-02-25T02:06:58.046Z,15.83
2019-02-25T02:09:26.511Z,16.20
2019-02-25T02:11:54.973Z,16.27
2019-02-25T02:14:23.852Z,15.43
2019-02-25T02:16:52.307Z,16.40
2019-02-25T02:19:20.758Z,15.43
2019-02-25T02:21:49.254Z,17.30
2019-02-25T02:24:17.711Z,17.00
2019-02-25T02:26:46.174Z,16.57
2019-02-25T02:29:14.696Z,16.50
2019-02-25T02:31:43.164Z,16.90
2019-02-25T02:34:11.635Z,16.50
2019-02-25T02:36:40.147Z,16.10
2019-02-25T02:39:08.624Z,16.73
2019-02-25T02:42:02.704Z,17.07
2019-02-25T02:44:31.162Z,16.27
2019-02-25T02:47:22.023Z,16.70
2019-02-25T02:49:50.488Z,16.90
2019-02-25T02:52:18.960Z,16.63
2019-02-25T02:54:47.466Z,17.33
2019-02-25T02:57:15.943Z,16.60
2019-02-25T02:59:44.481Z,16.30
2019-02-25T03:02:12.987Z,17.60
2019-02-25T03:04:41.452Z,18.43
2019-02-25T03:07:09.920Z,15.70
2019-02-25T03:09:38.427Z,17.67
2019-02-25T03:12:06.887Z,17.23
2019-02-25T03:14:35.339Z,16.20
2019-02-25T03:17:05.585Z,16.27
2019-02-25T03:19:34.120Z,17.10
2019-02-25T03:22:02.574Z,16.67
2019-02-25T03:24:31.066Z,17.40
2019-02-25T03:26:59.523Z,16.77
2019-02-25T03:29:27.986Z,17.50
2019-02-25T03:31:56.502Z,16.30
2019-02-25T03:34:24.983Z,16.77
2019-02-25T03:36:53.420Z,18.30
2019-02-25T03:39:21.919Z,17.57
2019-02-25T03:41:50.375Z,17.37
2019-02-25T03:44:18.844Z,17.93
2019-02-25T03:46:47.345Z,17.97
2019-02-25T03:49:15.807Z,17.13
2019-02-25T03:51:44.263Z,17.70
2019-02-25T03:54:12.763Z,15.60
2019-02-25T03:56:41.224Z,17.53
2019-02-25T03:59:09.760Z,17.43
2019-02-25T04:01:38.349Z,18.77
2019-02-25T04:04:06.929Z,17.13
2019-02-25T04:06:35.423Z,17.40
2019-02-25T04:09:04.968Z,18.07
2019-02-25T04:11:35.066Z,16.20
2019-02-25T04:14:03.566Z,17.50
2019-02-25T04:16:32.095Z,17.27
2019-02-25T04:19:00.780Z,18.00
2019-02-25T04:21:29.330Z,21.40
2019-02-25T04:23:57.960Z,18.23
2019-02-25T04:26:26.431Z,18.10
2019-02-25T04:28:54.893Z,19.83
2019-02-25T04:31:23.471Z,17.92
2019-02-25T04:33:51.973Z,20.53
2019-02-25T04:36:20.433Z,18.93
2019-02-25T04:38:48.913Z,18.83
2019-02-25T04:41:17.377Z,18.13
2019-02-25T04:43:45.840Z,20.70
2019-02-25T04:46:14.344Z,20.57
2019-02-25T04:48:42.881Z,20.67
2019-02-25T04:51:11.337Z,21.80
2019-02-25T04:53:39.838Z,21.70
2019-02-25T04:56:08.360Z,20.77
2019-02-25T04:58:36.984Z,23.57
2019-02-25T05:01:05.490Z,21.63
2019-02-25T05:03:33.955Z,21.00
2019-02-25T05:06:02.413Z,20.80
2019-02-25T05:08:30.896Z,20.33
2019-02-25T05:10:59.356Z,21.33
2019-02-25T05:13:27.820Z,22.27
2019-02-25T05:15:56.307Z,24.50
2019-02-25T05:18:24.777Z,22.50
2019-02-25T05:20:54.292Z,21.07
2019-02-25T05:23:22.814Z,21.70
2019-02-25T05:25:51.263Z,22.97
2019-02-25T05:28:19.723Z,24.20
2019-02-25T05:30:48.210Z,21.83
2019-02-25T05:33:16.681Z,22.53
2019-02-25T05:35:45.143Z,24.17
2019-02-25T05:38:13.663Z,23.60
2019-02-25T05:40:42.105Z,23.30
2019-02-25T05:43:10.572Z,22.00
2019-02-25T05:45:39.049Z,21.73
2019-02-25T05:48:07.513Z,21.30
2019-02-25T05:50:35.989Z,20.63
2019-02-25T05:53:04.479Z,24.43
2019-02-25T05:55:32.933Z,24.70
2019-02-25T05:58:01.404Z,25.30
2019-02-25T06:00:33.444Z,24.07
2019-02-25T06:03:01.931Z,25.20
2019-02-25T06:05:30.383Z,28.40
2019-02-25T06:07:58.859Z,29.03
2019-02-25T06:10:27.318Z,25.57
2019-02-25T06:12:55.777Z,25.50
2019-02-25T06:15:24.286Z,24.77
2019-02-25T06:17:52.747Z,24.23
2019-02-25T06:20:21.216Z,24.40
2019-02-25T06:22:50.036Z,25.10
2019-02-25T06:25:18.489Z,27.83
2019-02-25T06:27:46.944Z,24.83
2019-02-25T06:30:18.257Z,27.87
2019-02-25T06:32:46.717Z,27.87
2019-02-25T06:35:15.174Z,31.70
2019-02-25T06:37:44.035Z,30.07
2019-02-25T06:40:15.785Z,31.17
2019-02-25T06:42:44.489Z,31.83
2019-02-25T06:45:15.325Z,30.70
2019-02-25T06:47:43.774Z,32.17
2019-02-25T06:50:12.311Z,31.23
2019-02-25T06:52:40.811Z,31.83
2019-02-25T06:55:11.982Z,33.33
2019-02-25T06:57:40.435Z,29.30
2019-02-25T07:00:12.097Z,32.40
2019-02-25T07:02:40.629Z,31.90
2019-02-25T07:05:26.064Z,30.30
2019-02-25T07:07:58.881Z,29.37
2019-02-25T07:10:28.980Z,29.13
2019-02-25T07:13:02.214Z,30.37
2019-02-25T07:15:44.368Z,30.10
2019-02-25T07:18:20.224Z,29.97
2019-02-25T07:21:06.351Z,30.37
2019-02-25T07:23:45.517Z,31.47
2019-02-25T07:26:16.915Z,29.37
2019-02-25T07:28:47.129Z,30.37
2019-02-25T07:31:19.958Z,31.30
2019-02-25T07:33:58.800Z,30.17
2019-02-25T07:36:34.976Z,31.80
2019-02-25T07:39:11.135Z,33.07
2019-02-25T07:41:57.415Z,38.00
2019-02-25T07:44:30.326Z,41.10
2019-02-25T07:47:03.149Z,41.50
2019-02-25T07:49:33.254Z,42.00
2019-02-25T07:52:21.636Z,44.17
2019-02-25T07:54:51.715Z,46.17
2019-02-25T07:57:24.739Z,47.90
2019-02-25T07:59:54.898Z,47.33
2019-02-25T08:02:25.000Z,47.97
2019-02-25T08:05:04.381Z,46.77
2019-02-25T08:07:43.500Z,46.17
2019-02-25T08:10:28.791Z,44.57
2019-02-25T08:12:58.896Z,45.20
2019-02-25T08:15:31.811Z,42.67
2019-02-25T08:18:04.870Z,43.77
2019-02-25T08:20:53.336Z,44.57
2019-02-25T08:23:23.570Z,43.80
2019-02-25T08:25:56.348Z,42.80
2019-02-25T08:28:29.633Z,42.70
2019-02-25T08:31:02.408Z,42.20
2019-02-25T08:33:49.013Z,46.40
2019-02-25T08:36:44.077Z,42.07
2019-02-25T08:39:26.542Z,40.73
2019-02-25T08:42:02.563Z,41.63
2019-02-25T08:44:32.689Z,37.17
2019-02-25T08:47:02.799Z,42.37
2019-02-25T08:49:32.894Z,40.50
2019-02-25T08:52:01.392Z,38.50
2019-02-25T08:54:29.854Z,45.80
2019-02-25T08:56:58.317Z,39.63
2019-02-25T08:59:26.824Z,44.00
2019-02-25T09:01:55.353Z,40.60
2019-02-25T09:04:23.824Z,41.30
2019-02-25T09:06:52.319Z,39.67
2019-02-25T09:09:20.783Z,43.40
2019-02-25T09:11:49.393Z,42.67
2019-02-25T09:14:17.883Z,41.37
2019-02-25T09:16:46.336Z,43.97
2019-02-25T09:19:14.811Z,39.80
2019-02-25T09:21:43.323Z,39.67
2019-02-25T09:24:11.797Z,37.70
2019-02-25T09:26:40.258Z,41.43
2019-02-25T09:29:08.761Z,39.33
2019-02-25T09:31:38.490Z,37.57
2019-02-25T09:34:06.976Z,34.57
2019-02-25T09:36:35.476Z,37.40
2019-02-25T09:39:04.676Z,35.40
2019-02-25T09:41:33.151Z,34.47
2019-02-25T09:44:01.646Z,37.17
2019-02-25T09:46:31.800Z,37.90
2019-02-25T09:49:00.260Z,33.37
2019-02-25T09:51:28.732Z,37.27
2019-02-25T09:53:57.227Z,35.43
2019-02-25T09:56:25.725Z,34.80
2019-02-25T09:58:54.183Z,36.90
2019-02-25T10:01:22.646Z,34.13
2019-02-25T10:03:51.162Z,36.80
2019-02-25T10:06:19.622Z,34.77
2019-02-25T10:08:48.081Z,35.30
2019-02-25T10:11:17.064Z,31.83
2019-02-25T10:13:45.532Z,30.70
2019-02-25T10:16:14.052Z,32.47
2019-02-25T10:18:42.572Z,31.40
2019-02-25T10:21:11.044Z,29.33
2019-02-25T10:23:40.493Z,31.43
2019-02-25T10:26:09.183Z,28.20
2019-02-25T10:28:37.634Z,28.57
2019-02-25T10:31:06.124Z,30.57
2019-02-25T10:33:34.933Z,29.27
2019-02-25T10:36:03.401Z,24.33
2019-02-25T10:38:31.850Z,23.20
2019-02-25T10:41:00.363Z,20.97
2019-02-25T10:43:29.626Z,20.47
2019-02-25T10:45:59.020Z,19.90
2019-02-25T10:48:27.499Z,21.50
2019-02-25T10:50:56.477Z,22.30
2019-02-25T10:53:25.022Z,22.50
2019-02-25T10:55:59.666Z,21.03
2019-02-25T10:58:29.443Z,19.93
2019-02-25T11:00:58.357Z,18.03
2019-02-25T11:03:27.023Z,18.37
2019-02-25T11:05:56.352Z,19.50
2019-02-25T11:08:25.807Z,18.20
2019-02-25T11:10:59.205Z,18.70
2019-02-25T11:13:29.660Z,21.20
2019-02-25T11:15:57.944Z,19.50
2019-02-25T11:18:28.313Z,17.07
2019-02-25T11:20:56.695Z,18.00
2019-02-25T11:23:25.151Z,14.67
2019-02-25T11:25:55.786Z,16.67
2019-02-25T11:28:26.110Z,15.73
2019-02-25T11:30:54.049Z,16.10
2019-02-25T11:33:24.743Z,16.67
2019-02-25T11:35:53.038Z,16.37
2019-02-25T11:38:21.508Z,18.03
2019-02-25T11:40:51.544Z,14.33
2019-02-25T11:43:21.526Z,16.77
2019-02-25T11:45:50.282Z,17.27
2019-02-25T11:48:18.788Z,15.00
2019-02-25T11:50:47.249Z,15.70
2019-02-25T11:53:15.707Z,16.20
2019-02-25T11:55:44.238Z,18.30
2019-02-25T11:58:12.847Z,16.10
2019-02-25T12:00:41.330Z,16.03
2019-02-25T12:03:09.935Z,9.30
2019-02-25T12:05:38.391Z,13.37
2019-02-25T12:08:06.861Z,13.30
2019-02-25T12:10:35.395Z,13.03
2019-02-25T12:13:03.870Z,12.83
2019-02-25T12:15:32.331Z,15.87
2019-02-25T12:18:00.837Z,8.80
2019-02-25T12:20:29.304Z,7.10
2019-02-25T12:22:57.749Z,6.40
2019-02-25T12:25:26.629Z,8.10
2019-02-25T12:27:55.092Z,8.77
2019-02-25T12:30:24.758Z,9.33
2019-02-25T12:32:53.261Z,7.67
2019-02-25T12:35:21.750Z,8.30
2019-02-25T12:37:50.388Z,9.27
2019-02-25T12:40:19.331Z,7.47
2019-02-25T12:42:47.847Z,7.80
2019-02-25T12:45:16.762Z,7.07
2019-02-25T12:47:45.253Z,7.87
2019-02-25T12:50:18.900Z,7.43
2019-02-25T12:52:47.426Z,7.73
2019-02-25T12:55:19.771Z,8.47
2019-02-25T12:57:48.304Z,8.50
2019-02-25T13:00:18.005Z,8.10
2019-02-25T13:02:46.501Z,8.13
2019-02-25T13:05:28.271Z,8.70
2019-02-25T13:07:56.772Z,10.77
2019-02-25T13:10:25.240Z,11.03
2019-02-25T13:12:53.710Z,10.70
2019-02-25T13:15:23.958Z,8.83
2019-02-25T13:17:52.417Z,7.60
2019-02-25T13:20:20.902Z,10.33
2019-02-25T13:22:49.410Z,8.80
2019-02-25T13:25:25.796Z,8.07
2019-02-25T13:27:56.452Z,8.00
2019-02-25T13:30:24.464Z,9.00
2019-02-25T13:32:53.094Z,8.67
2019-02-25T13:35:21.607Z,7.30
2019-02-25T13:37:50.075Z,7.00
2019-02-25T13:40:19.577Z,7.97
2019-02-25T13:42:48.349Z,7.97
2019-02-25T13:45:20.794Z,9.10
2019-02-25T13:47:49.256Z,9.30
2019-02-25T13:50:18.589Z,7.63
2019-02-25T13:52:48.393Z,7.80
2019-02-25T13:55:19.061Z,8.23
2019-02-25T13:57:47.611Z,9.00
2019-02-25T14:00:24.648Z,7.90
2019-02-25T14:02:53.143Z,7.10
2019-02-25T14:05:22.239Z,8.30
2019-02-25T14:07:50.783Z,8.63
2019-02-25T14:10:19.711Z,7.20
2019-02-25T14:12:49.008Z,7.33
2019-02-25T14:15:20.071Z,9.00
2019-02-25T14:17:48.639Z,9.40
2019-02-25T14:20:21.513Z,9.67
2019-02-25T14:22:50.050Z,9.00
2019-02-25T14:25:28.783Z,8.57
2019-02-25T14:27:57.423Z,8.17
2019-02-25T14:30:26.825Z,8.33
2019-02-25T14:32:56.001Z,9.17
2019-02-25T14:35:28.765Z,8.70
2019-02-25T14:38:02.473Z,9.50
2019-02-25T14:40:31.677Z,8.03
2019-02-25T14:43:00.569Z,10.33
2019-02-25T14:45:33.553Z,10.30
2019-02-25T14:48:03.168Z,9.63
2019-02-25T14:50:30.960Z,8.03
2019-02-25T14:53:04.006Z,8.93
2019-02-25T14:55:33.006Z,8.80
2019-02-25T14:58:04.432Z,9.90
2019-02-25T15:00:34.487Z,10.03
2019-02-25T15:03:01.989Z,9.67
2019-02-25T15:05:30.534Z,11.20
2019-02-25T15:07:59.333Z,10.10
2019-02-25T15:10:31.360Z,11.93
2019-02-25T15:12:59.298Z,12.40
2019-02-25T15:15:28.568Z,11.33
2019-02-25T15:17:57.427Z,13.67
2019-02-25T15:20:28.345Z,12.10
2019-02-25T15:22:56.149Z,12.57
2019-02-25T15:25:24.640Z,13.13
2019-02-25T15:27:53.166Z,13.80
2019-02-25T15:30:30.704Z,12.87
2019-02-25T15:32:59.630Z,13.80
2019-02-25T15:35:31.674Z,14.63
2019-02-25T15:38:00.487Z,15.60
2019-02-25T15:40:29.516Z,14.50
2019-02-25T15:43:12.669Z,12.50
2019-02-25T15:45:42.686Z,16.13
2019-02-25T15:48:14.026Z,14.47
2019-02-25T15:50:46.111Z,13.50
2019-02-25T15:53:16.022Z,13.20
2019-02-25T15:55:43.912Z,13.70
2019-02-25T15:58:12.529Z,15.40
2019-02-25T16:00:41.354Z,13.63
2019-02-25T16:03:11.319Z,15.63
2019-02-25T16:05:40.090Z,13.90
2019-02-25T16:08:09.694Z,16.00
2019-02-25T16:10:38.166Z,13.33
2019-02-25T16:13:10.076Z,14.47
2019-02-25T16:15:37.236Z,15.63
2019-02-25T16:18:05.711Z,14.80
2019-02-25T16:20:34.195Z,15.03
2019-02-25T16:23:05.184Z,14.13
2019-02-25T16:25:34.513Z,15.17
2019-02-25T16:28:03.202Z,13.20
2019-02-25T16:30:31.774Z,14.37
2019-02-25T16:33:02.275Z,16.77
2019-02-25T16:35:30.609Z,15.20
2019-02-25T16:38:02.710Z,16.20
2019-02-25T16:40:32.932Z,15.23
2019-02-25T16:43:02.768Z,17.10
2019-02-25T16:45:34.908Z,16.20
2019-02-25T16:48:01.910Z,16.93
2019-02-25T16:50:30.790Z,18.37
2019-02-25T16:53:03.727Z,17.07
2019-02-25T16:55:29.589Z,18.53
2019-02-25T16:57:59.071Z,17.43
2019-02-25T17:00:30.153Z,18.53
2019-02-25T17:03:03.570Z,19.70
2019-02-25T17:05:29.864Z,20.40
2019-02-25T17:07:58.540Z,18.30
2019-02-25T17:10:29.138Z,17.83
2019-02-25T17:12:57.275Z,21.80
2019-02-25T17:15:26.950Z,28.67
2019-02-25T17:17:58.290Z,37.60
2019-02-25T17:20:27.822Z,26.23
2019-02-25T17:22:56.058Z,24.23
2019-02-25T17:25:26.813Z,20.73
2019-02-25T17:27:55.102Z,60.93
2019-02-25T17:30:25.822Z,49.60
2019-02-25T17:32:54.201Z,25.23
2019-02-25T17:35:25.801Z,35.50
2019-02-25T17:37:55.716Z,23.50
2019-02-25T17:40:23.727Z,27.20
2019-02-25T17:42:53.994Z,24.40
2019-02-25T17:45:25.094Z,24.67
2019-02-25T17:47:58.379Z,23.60
2019-02-25T17:50:25.075Z,38.23
2019-02-25T17:52:53.750Z,26.23
2019-02-25T17:55:25.360Z,44.90
2019-02-25T17:57:54.783Z,24.43
2019-02-25T18:00:34.332Z,22.60
2019-02-25T18:03:03.722Z,28.67
2019-02-25T18:05:34.115Z,48.37
2019-02-25T18:08:04.765Z,25.23
2019-02-25T18:10:33.007Z,25.73
2019-02-25T18:13:05.967Z,35.53
2019-02-25T18:15:33.007Z,36.33
2019-02-25T18:18:01.481Z,44.00
2019-02-25T18:20:30.259Z,66.70
2019-02-25T18:22:59.039Z,38.30
2019-02-25T18:25:27.521Z,44.57
2019-02-25T18:27:56.067Z,37.60
2019-02-25T18:30:31.907Z,29.23
2019-02-25T18:33:03.429Z,31.95
2019-02-25T18:35:31.451Z,26.80
2019-02-25T18:38:02.124Z,50.67
2019-02-25T18:40:30.240Z,46.90
2019-02-25T18:43:00.365Z,44.60
2019-02-25T18:45:29.465Z,47.03
2019-02-25T18:47:58.070Z,45.67
2019-02-25T18:50:28.562Z,41.43
2019-02-25T18:52:58.964Z,39.73
2019-02-25T18:55:29.404Z,51.93
2019-02-25T18:57:58.454Z,46.63
2019-02-25T19:00:41.920Z,37.30
2019-02-25T19:03:09.832Z,35.40
2019-02-25T19:05:38.419Z,33.20
2019-02-25T19:08:20.246Z,29.37
2019-02-25T19:10:51.165Z,30.50
2019-02-25T19:13:20.933Z,31.57
2019-02-25T19:15:50.745Z,30.77
2019-02-25T19:18:19.379Z,29.40
2019-02-25T19:20:48.240Z,30.63
2019-02-25T19:23:16.906Z,33.17
2019-02-25T19:25:45.443Z,30.60
2019-02-25T19:28:16.647Z,33.30
2019-02-25T19:30:44.172Z,33.20
2019-02-25T19:33:12.641Z,36.73
2019-02-25T19:35:41.197Z,31.83
2019-02-25T19:38:10.305Z,31.47
2019-02-25T19:40:40.516Z,30.20
2019-02-25T19:43:09.875Z,34.57
2019-02-25T19:45:39.116Z,32.73
2019-02-25T19:48:08.629Z,32.93
2019-02-25T19:50:49.894Z,33.40
2019-02-25T19:53:09.556Z,35.97
2019-02-25T19:55:38.633Z,36.70
2019-02-25T19:58:08.156Z,37.87
2019-02-25T20:00:36.644Z,36.83
2019-02-25T20:03:06.372Z,38.17
2019-02-25T20:05:38.775Z,40.60
2019-02-25T20:08:05.388Z,38.70
2019-02-25T20:10:34.042Z,40.70
2019-02-25T20:13:07.744Z,42.43
2019-02-25T20:15:37.498Z,43.00
2019-02-25T20:18:06.975Z,41.57
2019-02-25T20:20:36.510Z,44.87
2019-02-25T20:23:06.258Z,46.13
2019-02-25T20:25:35.882Z,40.20
2019-02-25T20:28:04.440Z,45.90
2019-02-25T20:30:32.972Z,44.00
2019-02-25T20:33:03.330Z,47.97
2019-02-25T20:35:32.041Z,46.40
2019-02-25T20:38:02.721Z,50.70
2019-02-25T20:40:32.859Z,47.70
2019-02-25T20:43:03.002Z,49.97
2019-02-25T20:45:35.398Z,50.20
2019-02-25T20:48:03.812Z,50.30
2019-02-25T20:50:32.321Z,54.80
2019-02-25T20:53:04.943Z,52.60
2019-02-25T20:55:31.730Z,54.60
2019-02-25T20:58:01.465Z,56.20
2019-02-25T21:00:29.998Z,56.07
2019-02-25T21:02:59.469Z,55.27
2019-02-25T21:05:27.960Z,54.80
2019-02-25T21:07:59.164Z,54.47
2019-02-25T21:10:27.866Z,55.73
2019-02-25T21:12:57.844Z,56.00
2019-02-25T21:15:27.336Z,52.50
2019-02-25T21:17:57.730Z,55.07
2019-02-25T21:20:28.757Z,56.67
2019-02-25T21:22:57.812Z,56.80
2019-02-25T21:25:27.457Z,57.67
2019-02-25T21:27:59.201Z,60.07
2019-02-25T21:30:26.969Z,60.30
2019-02-25T21:32:57.198Z,59.50
2019-02-25T21:35:27.797Z,60.20
2019-02-25T21:37:55.945Z,60.80
2019-02-25T21:40:27.810Z,61.83
2019-02-25T21:42:56.749Z,59.07
2019-02-25T21:45:29.043Z,57.37
2019-02-25T21:47:56.670Z,56.33
2019-02-25T21:50:28.315Z,58.30
2019-02-25T21:52:56.324Z,54.27
2019-02-25T21:55:27.466Z,57.00
2019-02-25T21:57:57.237Z,60.73
2019-02-25T22:00:31.545Z,61.73
2019-02-25T22:02:57.278Z,60.37
2019-02-25T22:05:25.758Z,60.13
2019-02-25T22:07:56.857Z,63.53
2019-02-25T22:10:24.514Z,60.77
2019-02-25T22:12:53.002Z,59.30
2019-02-25T22:15:22.328Z,62.57
2019-02-25T22:17:53.246Z,62.73
2019-02-25T22:20:22.542Z,65.17
2019-02-25T22:22:54.567Z,59.87
2019-02-25T22:25:23.970Z,60.60
2019-02-25T22:27:52.434Z,63.17
2019-02-25T22:30:20.950Z,62.27
2019-02-25T22:32:49.433Z,63.17
2019-02-25T22:35:17.905Z,61.50
2019-02-25T22:37:49.315Z,62.93
2019-02-25T22:40:17.692Z,67.30
2019-02-25T22:42:49.888Z,61.30
2019-02-25T22:45:19.090Z,66.03
2019-02-25T22:47:48.109Z,64.87
2019-02-25T22:50:17.665Z,60.50
2019-02-25T22:52:46.182Z,64.03
2019-02-25T22:55:15.919Z,63.13
2019-02-25T22:57:46.149Z,60.97
2019-02-25T23:00:34.172Z,61.07
2019-02-25T23:03:03.815Z,62.77
2019-02-25T23:05:32.373Z,62.27
2019-02-25T23:08:00.889Z,63.27
2019-02-25T23:10:29.442Z,60.60
2019-02-25T23:12:57.915Z,66.43
2019-02-25T23:15:28.150Z,54.00
2019-02-25T23:18:04.880Z,58.50
2019-02-25T23:20:27.439Z,57.60
2019-02-25T23:22:57.801Z,60.93
2019-02-25T23:25:27.335Z,56.47
2019-02-25T23:27:57.897Z,59.63
2019-02-25T23:30:26.053Z,59.03
2019-02-25T23:32:54.971Z,63.43
2019-02-25T23:35:25.383Z,61.17
2019-02-25T23:37:56.279Z,64.00
2019-02-25T23:40:24.223Z,61.77
2019-02-25T23:42:52.716Z,63.70
2019-02-25T23:45:23.142Z,62.17
2019-02-25T23:47:55.132Z,62.03
2019-02-25T23:50:21.655Z,59.37
2019-02-25T23:52:50.166Z,63.87
2019-02-25T23:55:19.623Z,57.90
2019-02-25T23:57:48.854Z,62.30
